Lansford, North Dakota
Current Conditions -  °F | °C
As of 8:23 PM on Wednesday 17 Dec 2014 (Local Time) from KMIB Reporting Station
Broken Clouds Broken Clouds  
Wind Chill: -7°   Ceiling: 1800
Heat Index:   Visibility: 10mi
Dew Point:   Wind: 7mph
Humidity: 92%   Direction: 160°SSE
Pressure: 30.18"   Gusts: NA
Location:  48.63°N, 101.38°W
Report Text: KMIB 180223Z AUTO 16006KT 10SM BKN018 M15/M16 A3018 RMK AO2 BKN V FEW
Loading
Personal Weather Stations






























Interactive Weather Map New forecast layout! Learn more

10-Day Weather Forecast

Advertisements
Track Severe Weather on mobile